sensor_id;sensor_type;location;lat;lon;timestamp;temperature;humidity
71801;HTU21D;59647;55.838;37.292;2023-04-01T00:00:20;3.97;96.97
71801;HTU21D;59647;55.838;37.292;2023-04-01T00:02:47;3.98;97.19
71801;HTU21D;59647;55.838;37.292;2023-04-01T00:05:13;3.98;97.11
71801;HTU21D;59647;55.838;37.292;2023-04-01T00:07:40;3.97;97.46
71801;HTU21D;59647;55.838;37.292;2023-04-01T00:10:08;3.97;97.36
71801;HTU21D;59647;55.838;37.292;2023-04-01T00:12:34;3.95;97.71
71801;HTU21D;59647;55.838;37.292;2023-04-01T00:15:01;3.94;97.58
71801;HTU21D;59647;55.838;37.292;2023-04-01T00:17:28;3.97;97.36
71801;HTU21D;59647;55.838;37.292;2023-04-01T00:19:55;3.95;97.39
71801;HTU21D;59647;55.838;37.292;2023-04-01T00:22:21;3.97;97.28
71801;HTU21D;59647;55.838;37.292;2023-04-01T00:24:47;3.97;97.15
71801;HTU21D;59647;55.838;37.292;2023-04-01T00:27:14;3.97;97.18
71801;HTU21D;59647;55.838;37.292;2023-04-01T00:29:45;3.95;97.10
71801;HTU21D;59647;55.838;37.292;2023-04-01T00:32:12;3.97;96.93
71801;HTU21D;59647;55.838;37.292;2023-04-01T00:34:38;3.98;96.87
71801;HTU21D;59647;55.838;37.292;2023-04-01T00:37:07;3.98;96.86
71801;HTU21D;59647;55.838;37.292;2023-04-01T00:39:34;3.99;96.75
71801;HTU21D;59647;55.838;37.292;2023-04-01T00:42:02;3.97;96.79
71801;HTU21D;59647;55.838;37.292;2023-04-01T00:44:33;3.92;96.82
71801;HTU21D;59647;55.838;37.292;2023-04-01T00:47:02;3.92;96.83
71801;HTU21D;59647;55.838;37.292;2023-04-01T00:49:37;3.92;96.98
71801;HTU21D;59647;55.838;37.292;2023-04-01T00:52:06;3.92;96.65
71801;HTU21D;59647;55.838;37.292;2023-04-01T00:54:33;3.86;96.75
71801;HTU21D;59647;55.838;37.292;2023-04-01T00:57:03;3.84;97.10
71801;HTU21D;59647;55.838;37.292;2023-04-01T00:59:39;3.86;97.02
71801;HTU21D;59647;55.838;37.292;2023-04-01T01:02:08;3.89;96.91
71801;HTU21D;59647;55.838;37.292;2023-04-01T01:04:35;3.90;96.73
71801;HTU21D;59647;55.838;37.292;2023-04-01T01:07:25;3.95;96.78
71801;HTU21D;59647;55.838;37.292;2023-04-01T01:15:54;3.99;96.67
71801;HTU21D;59647;55.838;37.292;2023-04-01T01:32:26;4.09;95.77
71801;HTU21D;59647;55.838;37.292;2023-04-01T01:35:28;4.06;95.83
71801;HTU21D;59647;55.838;37.292;2023-04-01T01:38:17;4.03;95.84
71801;HTU21D;59647;55.838;37.292;2023-04-01T01:40:52;4.03;95.89
71801;HTU21D;59647;55.838;37.292;2023-04-01T01:43:26;3.99;96.10
71801;HTU21D;59647;55.838;37.292;2023-04-01T01:45:57;3.95;96.03
71801;HTU21D;59647;55.838;37.292;2023-04-01T01:48:26;3.97;96.23
71801;HTU21D;59647;55.838;37.292;2023-04-01T01:50:53;3.98;96.13
71801;HTU21D;59647;55.838;37.292;2023-04-01T01:53:20;3.99;96.05
71801;HTU21D;59647;55.838;37.292;2023-04-01T01:55:46;4.02;95.89
71801;HTU21D;59647;55.838;37.292;2023-04-01T01:58:22;4.04;95.99
71801;HTU21D;59647;55.838;37.292;2023-04-01T02:00:53;4.04;95.92
71801;HTU21D;59647;55.838;37.292;2023-04-01T02:03:21;4.03;95.88
71801;HTU21D;59647;55.838;37.292;2023-04-01T02:05:50;4.02;95.90
71801;HTU21D;59647;55.838;37.292;2023-04-01T02:08:39;4.01;96.08
71801;HTU21D;59647;55.838;37.292;2023-04-01T02:11:12;3.99;96.13
71801;HTU21D;59647;55.838;37.292;2023-04-01T02:16:51;4.00;96.36
71801;HTU21D;59647;55.838;37.292;2023-04-01T02:19:21;3.97;96.42
71801;HTU21D;59647;55.838;37.292;2023-04-01T02:21:55;3.95;96.43
71801;HTU21D;59647;55.838;37.292;2023-04-01T02:24:24;3.94;96.41
71801;HTU21D;59647;55.838;37.292;2023-04-01T02:26:52;3.95;96.52
71801;HTU21D;59647;55.838;37.292;2023-04-01T02:29:20;3.97;96.65
71801;HTU21D;59647;55.838;37.292;2023-04-01T02:31:47;3.97;96.57
71801;HTU21D;59647;55.838;37.292;2023-04-01T02:34:15;3.94;96.58
71801;HTU21D;59647;55.838;37.292;2023-04-01T02:36:41;3.95;96.83
71801;HTU21D;59647;55.838;37.292;2023-04-01T02:39:07;3.97;96.81
71801;HTU21D;59647;55.838;37.292;2023-04-01T02:41:41;3.95;96.87
71801;HTU21D;59647;55.838;37.292;2023-04-01T02:44:08;3.97;96.86
71801;HTU21D;59647;55.838;37.292;2023-04-01T02:46:34;3.98;96.78
71801;HTU21D;59647;55.838;37.292;2023-04-01T02:49:00;3.98;96.75
71801;HTU21D;59647;55.838;37.292;2023-04-01T02:51:26;3.99;96.75
71801;HTU21D;59647;55.838;37.292;2023-04-01T02:53:52;3.98;96.75
71801;HTU21D;59647;55.838;37.292;2023-04-01T02:56:18;4.00;96.78
71801;HTU21D;59647;55.838;37.292;2023-04-01T02:58:45;4.00;96.72
71801;HTU21D;59647;55.838;37.292;2023-04-01T03:01:11;4.01;96.68
71801;HTU21D;59647;55.838;37.292;2023-04-01T03:03:38;4.02;96.65
71801;HTU21D;59647;55.838;37.292;2023-04-01T03:06:08;4.04;96.64
71801;HTU21D;59647;55.838;37.292;2023-04-01T03:08:35;4.05;96.66
71801;HTU21D;59647;55.838;37.292;2023-04-01T03:11:01;4.06;96.75
71801;HTU21D;59647;55.838;37.292;2023-04-01T03:13:28;4.05;96.97
71801;HTU21D;59647;55.838;37.292;2023-04-01T03:15:54;4.02;96.97
71801;HTU21D;59647;55.838;37.292;2023-04-01T03:18:20;4.03;96.91
71801;HTU21D;59647;55.838;37.292;2023-04-01T03:20:47;4.02;96.92
71801;HTU21D;59647;55.838;37.292;2023-04-01T03:23:14;4.03;96.93
71801;HTU21D;59647;55.838;37.292;2023-04-01T03:25:41;4.01;96.92
71801;HTU21D;59647;55.838;37.292;2023-04-01T03:28:07;4.03;96.96
71801;HTU21D;59647;55.838;37.292;2023-04-01T03:30:34;4.04;97.12
71801;HTU21D;59647;55.838;37.292;2023-04-01T03:33:00;4.05;96.93
71801;HTU21D;59647;55.838;37.292;2023-04-01T03:35:27;4.05;96.95
71801;HTU21D;59647;55.838;37.292;2023-04-01T03:37:53;4.06;97.00
71801;HTU21D;59647;55.838;37.292;2023-04-01T03:40:19;4.08;96.92
71801;HTU21D;59647;55.838;37.292;2023-04-01T03:42:46;4.07;97.13
71801;HTU21D;59647;55.838;37.292;2023-04-01T03:45:14;4.08;97.01
71801;HTU21D;59647;55.838;37.292;2023-04-01T03:47:40;4.09;96.98
71801;HTU21D;59647;55.838;37.292;2023-04-01T03:50:07;4.10;96.92
71801;HTU21D;59647;55.838;37.292;2023-04-01T03:52:33;4.12;96.94
71801;HTU21D;59647;55.838;37.292;2023-04-01T03:55:00;4.14;97.01
71801;HTU21D;59647;55.838;37.292;2023-04-01T03:57:31;4.14;97.09
71801;HTU21D;59647;55.838;37.292;2023-04-01T04:00:02;4.14;97.13
71801;HTU21D;59647;55.838;37.292;2023-04-01T04:02:29;4.16;97.03
71801;HTU21D;59647;55.838;37.292;2023-04-01T04:04:55;4.16;97.04
71801;HTU21D;59647;55.838;37.292;2023-04-01T04:07:22;4.17;97.40
71801;HTU21D;59647;55.838;37.292;2023-04-01T04:10:04;4.18;97.35
71801;HTU21D;59647;55.838;37.292;2023-04-01T04:12:30;4.19;97.10
71801;HTU21D;59647;55.838;37.292;2023-04-01T04:14:56;4.21;97.10
71801;HTU21D;59647;55.838;37.292;2023-04-01T04:17:22;4.21;96.94
71801;HTU21D;59647;55.838;37.292;2023-04-01T04:19:48;4.23;97.31
71801;HTU21D;59647;55.838;37.292;2023-04-01T04:22:15;4.24;97.27
71801;HTU21D;59647;55.838;37.292;2023-04-01T04:24:41;4.23;97.28
71801;HTU21D;59647;55.838;37.292;2023-04-01T04:27:11;4.26;97.29
71801;HTU21D;59647;55.838;37.292;2023-04-01T04:29:45;4.28;97.29
71801;HTU21D;59647;55.838;37.292;2023-04-01T04:32:11;4.32;97.20
71801;HTU21D;59647;55.838;37.292;2023-04-01T04:34:37;4.33;97.14
71801;HTU21D;59647;55.838;37.292;2023-04-01T04:37:03;4.38;97.17
71801;HTU21D;59647;55.838;37.292;2023-04-01T04:39:33;4.46;97.35
71801;HTU21D;59647;55.838;37.292;2023-04-01T04:41:59;4.48;97.32
71801;HTU21D;59647;55.838;37.292;2023-04-01T04:44:25;4.51;97.36
71801;HTU21D;59647;55.838;37.292;2023-04-01T04:46:51;4.53;97.42
71801;HTU21D;59647;55.838;37.292;2023-04-01T04:49:18;4.57;97.27
71801;HTU21D;59647;55.838;37.292;2023-04-01T04:51:44;4.57;97.42
71801;HTU21D;59647;55.838;37.292;2023-04-01T04:54:11;4.58;97.09
71801;HTU21D;59647;55.838;37.292;2023-04-01T04:56:58;4.59;97.17
71801;HTU21D;59647;55.838;37.292;2023-04-01T04:59:26;4.59;97.09
71801;HTU21D;59647;55.838;37.292;2023-04-01T05:02:01;4.65;96.95
71801;HTU21D;59647;55.838;37.292;2023-04-01T05:04:28;4.68;96.74
71801;HTU21D;59647;55.838;37.292;2023-04-01T05:06:53;4.69;96.70
71801;HTU21D;59647;55.838;37.292;2023-04-01T05:09:19;4.73;96.64
71801;HTU21D;59647;55.838;37.292;2023-04-01T05:11:45;4.77;96.75
71801;HTU21D;59647;55.838;37.292;2023-04-01T05:14:13;4.80;96.62
71801;HTU21D;59647;55.838;37.292;2023-04-01T05:16:40;4.87;96.53
71801;HTU21D;59647;55.838;37.292;2023-04-01T05:19:06;4.90;96.49
71801;HTU21D;59647;55.838;37.292;2023-04-01T05:21:32;4.92;96.25
71801;HTU21D;59647;55.838;37.292;2023-04-01T05:23:58;4.93;96.34
71801;HTU21D;59647;55.838;37.292;2023-04-01T05:26:25;4.96;96.26
71801;HTU21D;59647;55.838;37.292;2023-04-01T05:28:51;4.95;96.05
71801;HTU21D;59647;55.838;37.292;2023-04-01T05:31:17;4.97;96.30
71801;HTU21D;59647;55.838;37.292;2023-04-01T05:33:45;4.95;96.20
71801;HTU21D;59647;55.838;37.292;2023-04-01T05:36:14;4.94;96.55
71801;HTU21D;59647;55.838;37.292;2023-04-01T05:38:41;4.94;96.26
71801;HTU21D;59647;55.838;37.292;2023-04-01T05:41:10;4.97;96.29
71801;HTU21D;59647;55.838;37.292;2023-04-01T05:43:40;5.06;96.44
71801;HTU21D;59647;55.838;37.292;2023-04-01T05:46:29;5.13;96.07
71801;HTU21D;59647;55.838;37.292;2023-04-01T05:49:02;5.19;96.05
71801;HTU21D;59647;55.838;37.292;2023-04-01T05:51:29;5.26;96.09
71801;HTU21D;59647;55.838;37.292;2023-04-01T05:53:55;5.38;96.15
71801;HTU21D;59647;55.838;37.292;2023-04-01T05:56:21;5.49;96.36
71801;HTU21D;59647;55.838;37.292;2023-04-01T05:58:53;5.59;95.89
71801;HTU21D;59647;55.838;37.292;2023-04-01T06:01:20;5.65;95.38
71801;HTU21D;59647;55.838;37.292;2023-04-01T06:03:46;5.66;94.57
71801;HTU21D;59647;55.838;37.292;2023-04-01T06:06:25;5.69;94.81
71801;HTU21D;59647;55.838;37.292;2023-04-01T06:08:53;5.77;94.67
71801;HTU21D;59647;55.838;37.292;2023-04-01T06:18:08;5.79;94.16
71801;HTU21D;59647;55.838;37.292;2023-04-01T06:26:17;5.98;94.50
71801;HTU21D;59647;55.838;37.292;2023-04-01T06:34:53;6.27;93.17
71801;HTU21D;59647;55.838;37.292;2023-04-01T06:45:16;6.79;92.08
71801;HTU21D;59647;55.838;37.292;2023-04-01T06:54:48;7.28;87.09
71801;HTU21D;59647;55.838;37.292;2023-04-01T06:57:47;7.34;86.77
71801;HTU21D;59647;55.838;37.292;2023-04-01T07:00:30;7.47;86.26
71801;HTU21D;59647;55.838;37.292;2023-04-01T07:03:14;7.59;85.03
71801;HTU21D;59647;55.838;37.292;2023-04-01T07:05:43;7.70;85.90
71801;HTU21D;59647;55.838;37.292;2023-04-01T07:08:13;7.69;85.78
71801;HTU21D;59647;55.838;37.292;2023-04-01T07:10:50;7.84;86.40
71801;HTU21D;59647;55.838;37.292;2023-04-01T07:13:55;8.02;82.61
71801;HTU21D;59647;55.838;37.292;2023-04-01T07:21:49;8.22;83.10
71801;HTU21D;59647;55.838;37.292;2023-04-01T07:24:34;8.31;83.31
71801;HTU21D;59647;55.838;37.292;2023-04-01T07:27:10;8.41;83.54
71801;HTU21D;59647;55.838;37.292;2023-04-01T07:29:37;8.51;83.39
71801;HTU21D;59647;55.838;37.292;2023-04-01T07:37:58;8.70;78.17
71801;HTU21D;59647;55.838;37.292;2023-04-01T07:43:27;8.74;79.67
71801;HTU21D;59647;55.838;37.292;2023-04-01T07:52:12;9.12;77.78
71801;HTU21D;59647;55.838;37.292;2023-04-01T07:55:10;9.17;78.52
71801;HTU21D;59647;55.838;37.292;2023-04-01T08:01:02;9.14;75.02
71801;HTU21D;59647;55.838;37.292;2023-04-01T08:07:36;9.45;75.44
71801;HTU21D;59647;55.838;37.292;2023-04-01T08:10:44;9.54;76.94
71801;HTU21D;59647;55.838;37.292;2023-04-01T08:17:24;10.10;72.40
71801;HTU21D;59647;55.838;37.292;2023-04-01T08:22:51;10.63;75.31
71801;HTU21D;59647;55.838;37.292;2023-04-01T08:25:28;10.82;72.79
71801;HTU21D;59647;55.838;37.292;2023-04-01T08:28:16;11.03;74.54
71801;HTU21D;59647;55.838;37.292;2023-04-01T08:30:51;11.41;76.40
71801;HTU21D;59647;55.838;37.292;2023-04-01T08:33:31;11.67;73.74
71801;HTU21D;59647;55.838;37.292;2023-04-01T08:36:34;11.89;75.58
71801;HTU21D;59647;55.838;37.292;2023-04-01T08:39:18;12.15;73.13
71801;HTU21D;59647;55.838;37.292;2023-04-01T08:56:16;12.78;58.71
71801;HTU21D;59647;55.838;37.292;2023-04-01T09:07:56;13.32;69.42
71801;HTU21D;59647;55.838;37.292;2023-04-01T09:16:30;13.82;61.38
71801;HTU21D;59647;55.838;37.292;2023-04-01T09:22:08;14.19;64.85
71801;HTU21D;59647;55.838;37.292;2023-04-01T09:40:08;13.38;61.12
71801;HTU21D;59647;55.838;37.292;2023-04-01T09:42:32;13.51;55.10
71801;HTU21D;59647;55.838;37.292;2023-04-01T09:45:17;13.83;59.22
71801;HTU21D;59647;55.838;37.292;2023-04-01T09:50:50;14.17;57.63
71801;HTU21D;59647;55.838;37.292;2023-04-01T09:53:20;14.10;55.94
71801;HTU21D;59647;55.838;37.292;2023-04-01T10:21:46;12.96;58.37
71801;HTU21D;59647;55.838;37.292;2023-04-01T10:37:06;13.91;55.16
71801;HTU21D;59647;55.838;37.292;2023-04-01T10:43:37;14.22;48.50
71801;HTU21D;59647;55.838;37.292;2023-04-01T10:51:25;14.66;56.97
71801;HTU21D;59647;55.838;37.292;2023-04-01T11:28:30;14.94;43.49
71801;HTU21D;59647;55.838;37.292;2023-04-01T11:43:11;14.57;44.50
71801;HTU21D;59647;55.838;37.292;2023-04-01T11:46:25;14.41;48.53
71801;HTU21D;59647;55.838;37.292;2023-04-01T11:52:44;14.44;44.23
71801;HTU21D;59647;55.838;37.292;2023-04-01T12:22:23;14.21;50.69
71801;HTU21D;59647;55.838;37.292;2023-04-01T12:27:45;14.10;52.37
71801;HTU21D;59647;55.838;37.292;2023-04-01T12:39:32;13.80;49.19
71801;HTU21D;59647;55.838;37.292;2023-04-01T12:55:44;13.46;49.54
71801;HTU21D;59647;55.838;37.292;2023-04-01T13:01:27;13.36;47.98
71801;HTU21D;59647;55.838;37.292;2023-04-01T13:03:52;13.35;46.58
71801;HTU21D;59647;55.838;37.292;2023-04-01T13:17:36;12.58;50.95
71801;HTU21D;59647;55.838;37.292;2023-04-01T13:28:23;12.18;51.66
71801;HTU21D;59647;55.838;37.292;2023-04-01T13:36:47;12.10;51.29
71801;HTU21D;59647;55.838;37.292;2023-04-01T13:44:40;12.15;51.37
71801;HTU21D;59647;55.838;37.292;2023-04-01T13:47:32;12.11;52.78
71801;HTU21D;59647;55.838;37.292;2023-04-01T13:50:58;12.00;53.53
71801;HTU21D;59647;55.838;37.292;2023-04-01T13:53:58;12.08;52.81
71801;HTU21D;59647;55.838;37.292;2023-04-01T13:59:06;12.01;51.43
71801;HTU21D;59647;55.838;37.292;2023-04-01T14:07:07;11.83;49.43
71801;HTU21D;59647;55.838;37.292;2023-04-01T14:31:48;11.30;57.08
71801;HTU21D;59647;55.838;37.292;2023-04-01T14:57:20;10.94;61.09
71801;HTU21D;59647;55.838;37.292;2023-04-01T14:59:40;10.90;61.76
71801;HTU21D;59647;55.838;37.292;2023-04-01T15:08:29;10.58;64.01
71801;HTU21D;59647;55.838;37.292;2023-04-01T15:26:19;10.27;66.89
71801;HTU21D;59647;55.838;37.292;2023-04-01T15:31:31;10.15;71.54
71801;HTU21D;59647;55.838;37.292;2023-04-01T15:34:38;10.18;70.42
71801;HTU21D;59647;55.838;37.292;2023-04-01T15:40:26;10.03;74.91
71801;HTU21D;59647;55.838;37.292;2023-04-01T15:45:56;9.94;73.04
71801;HTU21D;59647;55.838;37.292;2023-04-01T15:51:58;9.85;74.60
71801;HTU21D;59647;55.838;37.292;2023-04-01T15:54:24;9.85;72.16
71801;HTU21D;59647;55.838;37.292;2023-04-01T15:57:13;9.77;79.08
71801;HTU21D;59647;55.838;37.292;2023-04-01T16:03:18;9.72;76.66
71801;HTU21D;59647;55.838;37.292;2023-04-01T16:05:29;9.69;78.59
71801;HTU21D;59647;55.838;37.292;2023-04-01T16:07:59;9.62;76.83
71801;HTU21D;59647;55.838;37.292;2023-04-01T16:13:46;9.66;78.29
71801;HTU21D;59647;55.838;37.292;2023-04-01T16:22:20;9.55;78.94
71801;HTU21D;59647;55.838;37.292;2023-04-01T16:35:22;9.48;80.52
71801;HTU21D;59647;55.838;37.292;2023-04-01T16:44:20;9.45;80.89
71801;HTU21D;59647;55.838;37.292;2023-04-01T16:46:54;9.41;79.70
71801;HTU21D;59647;55.838;37.292;2023-04-01T16:49:37;9.39;80.94
71801;HTU21D;59647;55.838;37.292;2023-04-01T16:54:55;9.40;79.01
71801;HTU21D;59647;55.838;37.292;2023-04-01T16:57:30;9.39;79.84
71801;HTU21D;59647;55.838;37.292;2023-04-01T17:00:27;9.34;79.72
71801;HTU21D;59647;55.838;37.292;2023-04-01T17:08:35;9.35;78.95
71801;HTU21D;59647;55.838;37.292;2023-04-01T17:19:08;9.32;79.15
71801;HTU21D;59647;55.838;37.292;2023-04-01T17:30:06;9.29;79.95
71801;HTU21D;59647;55.838;37.292;2023-04-01T17:35:43;9.25;81.26
71801;HTU21D;59647;55.838;37.292;2023-04-01T17:38:38;9.23;83.71
71801;HTU21D;59647;55.838;37.292;2023-04-01T17:41:45;9.24;81.90
71801;HTU21D;59647;55.838;37.292;2023-04-01T18:02:54;9.21;81.71
71801;HTU21D;59647;55.838;37.292;2023-04-01T18:11:05;9.11;83.70
71801;HTU21D;59647;55.838;37.292;2023-04-01T18:19:23;9.08;83.99
71801;HTU21D;59647;55.838;37.292;2023-04-01T18:22:09;9.08;84.11
71801;HTU21D;59647;55.838;37.292;2023-04-01T18:27:45;9.04;82.53
71801;HTU21D;59647;55.838;37.292;2023-04-01T18:32:51;8.97;85.41
71801;HTU21D;59647;55.838;37.292;2023-04-01T18:35:50;9.02;83.03
71801;HTU21D;59647;55.838;37.292;2023-04-01T18:38:31;9.01;82.69
71801;HTU21D;59647;55.838;37.292;2023-04-01T18:43:43;9.10;81.80
71801;HTU21D;59647;55.838;37.292;2023-04-01T18:46:21;9.11;83.10
71801;HTU21D;59647;55.838;37.292;2023-04-01T18:51:42;9.04;84.04
71801;HTU21D;59647;55.838;37.292;2023-04-01T18:57:03;9.02;83.60
71801;HTU21D;59647;55.838;37.292;2023-04-01T18:59:40;9.05;82.36
71801;HTU21D;59647;55.838;37.292;2023-04-01T19:02:25;9.04;83.87
71801;HTU21D;59647;55.838;37.292;2023-04-01T19:05:12;9.03;84.68
71801;HTU21D;59647;55.838;37.292;2023-04-01T19:07:53;9.04;84.44
71801;HTU21D;59647;55.838;37.292;2023-04-01T19:10:27;9.10;83.66
71801;HTU21D;59647;55.838;37.292;2023-04-01T19:16:16;9.10;86.44
71801;HTU21D;59647;55.838;37.292;2023-04-01T19:21:41;9.03;83.45
71801;HTU21D;59647;55.838;37.292;2023-04-01T19:38:31;9.15;83.29
71801;HTU21D;59647;55.838;37.292;2023-04-01T19:41:17;9.17;82.98
71801;HTU21D;59647;55.838;37.292;2023-04-01T19:46:33;9.14;85.72
71801;HTU21D;59647;55.838;37.292;2023-04-01T19:54:47;9.11;84.22
71801;HTU21D;59647;55.838;37.292;2023-04-01T19:57:17;9.14;83.40
71801;HTU21D;59647;55.838;37.292;2023-04-01T20:00:36;9.17;83.90
71801;HTU21D;59647;55.838;37.292;2023-04-01T20:07:59;9.18;83.26
71801;HTU21D;59647;55.838;37.292;2023-04-01T20:13:36;9.15;84.48
71801;HTU21D;59647;55.838;37.292;2023-04-01T20:16:07;9.14;86.14
71801;HTU21D;59647;55.838;37.292;2023-04-01T20:21:16;9.14;83.88
71801;HTU21D;59647;55.838;37.292;2023-04-01T20:23:59;9.19;84.50
71801;HTU21D;59647;55.838;37.292;2023-04-01T20:26:33;9.14;85.77
71801;HTU21D;59647;55.838;37.292;2023-04-01T20:31:56;9.12;85.07
71801;HTU21D;59647;55.838;37.292;2023-04-01T20:34:50;9.15;84.61
71801;HTU21D;59647;55.838;37.292;2023-04-01T20:45:41;9.04;86.23
71801;HTU21D;59647;55.838;37.292;2023-04-01T20:54:24;8.89;88.48
71801;HTU21D;59647;55.838;37.292;2023-04-01T21:03:11;8.85;89.60
71801;HTU21D;59647;55.838;37.292;2023-04-01T21:09:06;8.93;87.97
71801;HTU21D;59647;55.838;37.292;2023-04-01T21:11:48;8.97;88.88
71801;HTU21D;59647;55.838;37.292;2023-04-01T21:22:25;9.07;88.22
71801;HTU21D;59647;55.838;37.292;2023-04-01T21:25:22;9.03;87.28
71801;HTU21D;59647;55.838;37.292;2023-04-01T21:38:55;9.09;87.11
71801;HTU21D;59647;55.838;37.292;2023-04-01T22:03:49;9.16;88.25
71801;HTU21D;59647;55.838;37.292;2023-04-01T22:09:29;9.24;87.12
71801;HTU21D;59647;55.838;37.292;2023-04-01T22:12:11;9.22;87.77
71801;HTU21D;59647;55.838;37.292;2023-04-01T22:17:19;9.20;87.88
71801;HTU21D;59647;55.838;37.292;2023-04-01T22:22:52;9.26;86.97
71801;HTU21D;59647;55.838;37.292;2023-04-01T22:25:31;9.24;88.57
71801;HTU21D;59647;55.838;37.292;2023-04-01T22:28:07;9.23;87.38
71801;HTU21D;59647;55.838;37.292;2023-04-01T22:30:42;9.26;86.76
71801;HTU21D;59647;55.838;37.292;2023-04-01T22:33:38;9.32;87.21
71801;HTU21D;59647;55.838;37.292;2023-04-01T22:41:51;9.27;88.01
71801;HTU21D;59647;55.838;37.292;2023-04-01T22:44:43;9.25;88.99
71801;HTU21D;59647;55.838;37.292;2023-04-01T22:52:38;9.24;89.07
71801;HTU21D;59647;55.838;37.292;2023-04-01T22:55:20;9.22;89.48
71801;HTU21D;59647;55.838;37.292;2023-04-01T22:58:08;9.27;89.33
71801;HTU21D;59647;55.838;37.292;2023-04-01T23:00:56;9.23;89.92
71801;HTU21D;59647;55.838;37.292;2023-04-01T23:03:32;9.24;89.83
71801;HTU21D;59647;55.838;37.292;2023-04-01T23:06:00;9.24;89.51
71801;HTU21D;59647;55.838;37.292;2023-04-01T23:11:09;9.26;89.43
71801;HTU21D;59647;55.838;37.292;2023-04-01T23:16:39;9.30;90.71
71801;HTU21D;59647;55.838;37.292;2023-04-01T23:19:29;9.25;92.44
71801;HTU21D;59647;55.838;37.292;2023-04-01T23:24:54;9.25;90.53
71801;HTU21D;59647;55.838;37.292;2023-04-01T23:27:51;9.27;90.03
71801;HTU21D;59647;55.838;37.292;2023-04-01T23:33:30;9.27;91.42
71801;HTU21D;59647;55.838;37.292;2023-04-01T23:36:11;9.29;90.50
71801;HTU21D;59647;55.838;37.292;2023-04-01T23:38:42;9.29;90.88
71801;HTU21D;59647;55.838;37.292;2023-04-01T23:41:25;9.31;90.46
71801;HTU21D;59647;55.838;37.292;2023-04-01T23:44:07;9.32;91.28
71801;HTU21D;59647;55.838;37.292;2023-04-01T23:46:35;9.29;90.76
71801;HTU21D;59647;55.838;37.292;2023-04-01T23:49:03;9.29;90.02
71801;HTU21D;59647;55.838;37.292;2023-04-01T23:51:37;9.32;90.28
71801;HTU21D;59647;55.838;37.292;2023-04-01T23:54:31;9.35;90.26
71801;HTU21D;59647;55.838;37.292;2023-04-01T23:56:57;9.29;92.13
71801;HTU21D;59647;55.838;37.292;2023-04-01T23:59:35;9.27;90.97
